createdAt,value
2017-11-22T00:00:45.662Z,6.05
2017-11-22T00:01:55.633Z,6.07
2017-11-22T00:03:05.351Z,6.02
2017-11-22T00:04:15.340Z,6.01
2017-11-22T00:05:25.326Z,6.07
2017-11-22T00:06:35.304Z,6.06
2017-11-22T00:07:44.767Z,6.09
2017-11-22T00:08:54.742Z,5.99
2017-11-22T00:10:04.445Z,6.06
2017-11-22T00:11:14.145Z,6.16
2017-11-22T00:12:23.853Z,6.07
2017-11-22T00:13:33.817Z,6.1
2017-11-22T00:14:43.546Z,6.07
2017-11-22T00:15:53.527Z,6.12
2017-11-22T00:17:03.224Z,6.07
2017-11-22T00:18:12.937Z,6.12
2017-11-22T00:19:22.944Z,6.12
2017-11-22T00:20:32.917Z,6.16
2017-11-22T00:21:42.887Z,6.19
2017-11-22T00:22:52.330Z,6.15
2017-11-22T00:24:02.314Z,6.16
2017-11-22T00:25:12.313Z,6.1
2017-11-22T00:26:22.011Z,6.17
2017-11-22T00:27:31.718Z,6.2
2017-11-22T00:28:41.159Z,6.26
2017-11-22T00:29:50.075Z,6.12
2017-11-22T00:31:00.078Z,6.15
2017-11-22T00:32:10.058Z,6.13
2017-11-22T00:33:20.029Z,6.17
2017-11-22T00:34:29.774Z,6.16
2017-11-22T00:35:39.480Z,6.12
2017-11-22T00:36:49.450Z,6.15
2017-11-22T00:37:59.413Z,6.16
2017-11-22T00:39:09.114Z,6.16
2017-11-22T00:40:19.082Z,6.28
2017-11-22T00:41:28.782Z,6.19
2017-11-22T00:42:38.764Z,6.22
2017-11-22T00:43:48.733Z,6.25
2017-11-22T00:44:58.696Z,6.26
2017-11-22T00:46:08.419Z,6.25
2017-11-22T00:47:18.138Z,6.26
2017-11-22T00:48:28.106Z,6.32
2017-11-22T00:49:37.556Z,6.34
2017-11-22T00:50:47.547Z,6.31
2017-11-22T00:51:57.240Z,6.32
2017-11-22T00:53:06.965Z,6.25
2017-11-22T00:54:16.402Z,6.36
2017-11-22T00:55:26.384Z,6.35
2017-11-22T00:56:36.340Z,6.38
2017-11-22T00:57:46.326Z,6.36
2017-11-22T00:58:55.766Z,6.31
2017-11-22T01:00:05.477Z,6.29
2017-11-22T01:01:15.185Z,6.31
2017-11-22T01:02:24.898Z,6.35
2017-11-22T01:03:34.608Z,6.41
2017-11-22T01:04:43.788Z,6.43
2017-11-22T01:05:53.490Z,6.44
2017-11-22T01:07:03.178Z,6.53
2017-11-22T01:08:12.875Z,6.57
2017-11-22T01:09:22.844Z,6.46
2017-11-22T01:10:32.814Z,6.56
2017-11-22T01:11:42.781Z,6.57
2017-11-22T01:12:52.744Z,6.53
2017-11-22T01:14:02.716Z,6.54
2017-11-22T01:15:12.770Z,6.62
2017-11-22T01:16:22.477Z,6.54
2017-11-22T01:17:32.448Z,6.56
2017-11-22T01:18:41.903Z,6.65
2017-11-22T01:19:51.364Z,6.71
2017-11-22T01:21:01.329Z,6.67
2017-11-22T01:22:11.294Z,6.72
2017-11-22T01:23:21.013Z,6.75
2017-11-22T01:24:30.711Z,6.74
2017-11-22T01:25:40.418Z,6.85
2017-11-22T01:26:50.118Z,6.82
2017-11-22T01:28:00.088Z,6.86
2017-11-22T01:29:09.802Z,6.89
2017-11-22T01:30:19.502Z,6.85
2017-11-22T01:31:29.468Z,6.9
2017-11-22T01:32:39.434Z,6.89
2017-11-22T01:33:49.139Z,6.89
2017-11-22T01:34:58.594Z,6.96
2017-11-22T01:36:08.309Z,6.96
2017-11-22T01:37:18.021Z,6.95
2017-11-22T01:38:27.737Z,7.03
2017-11-22T01:39:37.450Z,6.92
2017-11-22T01:40:46.642Z,6.95
2017-11-22T01:41:56.096Z,7
2017-11-22T01:43:06.084Z,7.01
2017-11-22T01:44:15.795Z,7.07
2017-11-22T01:45:25.565Z,7.15
2017-11-22T01:46:35.529Z,7.25
2017-11-22T01:47:45.242Z,7.18
2017-11-22T01:48:55.216Z,7.22
2017-11-22T01:50:04.928Z,7.21
2017-11-22T01:51:14.639Z,7.19
2017-11-22T01:52:24.601Z,7.15
2017-11-22T01:53:34.617Z,7.33
2017-11-22T01:54:44.062Z,7.31
2017-11-22T01:55:54.048Z,7.28
2017-11-22T01:57:04.007Z,7.36
2017-11-22T01:58:13.744Z,7.41
2017-11-22T01:59:23.454Z,7.44
2017-11-22T02:00:33.180Z,7.46
2017-11-22T02:01:42.375Z,7.46
2017-11-22T02:02:52.081Z,7.55
2017-11-22T02:04:02.266Z,7.64
2017-11-22T02:05:11.699Z,7.64
2017-11-22T02:06:21.408Z,7.59
2017-11-22T02:07:31.122Z,7.62
2017-11-22T02:08:41.288Z,7.75
2017-11-22T02:09:51.001Z,7.8
2017-11-22T02:11:00.963Z,7.74
2017-11-22T02:12:10.389Z,7.83
2017-11-22T02:13:20.361Z,7.88
2017-11-22T02:14:30.332Z,7.85
2017-11-22T02:15:40.045Z,7.96
2017-11-22T02:16:49.998Z,8.06
2017-11-22T02:17:59.965Z,8.13
2017-11-22T02:19:09.666Z,8.2
2017-11-22T02:20:19.378Z,8.21
2017-11-22T02:21:29.087Z,8.28
2017-11-22T02:22:38.795Z,8.39
2017-11-22T02:23:48.766Z,8.36
2017-11-22T02:24:58.736Z,8.38
2017-11-22T02:26:08.714Z,8.39
2017-11-22T02:27:18.684Z,8.45
2017-11-22T02:28:28.395Z,8.6
2017-11-22T02:29:38.358Z,8.61
2017-11-22T02:30:48.064Z,8.71
2017-11-22T02:31:57.775Z,8.71
2017-11-22T02:33:07.742Z,8.78
2017-11-22T02:34:16.922Z,8.81
2017-11-22T02:35:26.905Z,8.89
2017-11-22T02:36:36.887Z,8.89
2017-11-22T02:37:46.865Z,8.93
2017-11-22T02:39:17.854Z,8.95
2017-11-22T02:40:27.572Z,9.09
2017-11-22T02:41:37.295Z,9.05
2017-11-22T02:42:47.008Z,9.12
2017-11-22T02:43:56.470Z,9.08
2017-11-22T02:45:06.182Z,9.19
2017-11-22T02:46:16.149Z,9.18
2017-11-22T02:47:26.131Z,9.22
2017-11-22T02:48:36.114Z,9.26
2017-11-22T02:49:45.836Z,9.26
2017-11-22T02:50:55.565Z,9.24
2017-11-22T02:52:05.281Z,9.26
2017-11-22T02:53:14.978Z,9.24
2017-11-22T02:54:24.957Z,9.26
2017-11-22T02:55:34.419Z,9.27
2017-11-22T02:56:43.609Z,9.31
2017-11-22T02:57:53.308Z,9.24
2017-11-22T02:59:03.761Z,9.24
2017-11-22T03:00:15.011Z,9.24
2017-11-22T03:01:24.997Z,9.29
2017-11-22T03:02:34.703Z,9.24
2017-11-22T03:03:44.414Z,9.24
2017-11-22T03:04:54.400Z,9.24
2017-11-22T03:06:03.858Z,9.26
2017-11-22T03:07:13.831Z,9.27
2017-11-22T03:08:23.547Z,9.19
2017-11-22T03:09:33.506Z,9.29
2017-11-22T03:10:43.464Z,9.26
2017-11-22T03:11:53.444Z,9.27
2017-11-22T03:13:03.412Z,9.29
2017-11-22T03:14:13.414Z,9.24
2017-11-22T03:15:22.864Z,9.22
2017-11-22T03:16:32.586Z,9.21
2017-11-22T03:17:42.059Z,9.15
2017-11-22T03:18:52.130Z,9.26
2017-11-22T03:20:02.154Z,9.26
2017-11-22T03:21:11.904Z,9.19
2017-11-22T03:22:21.612Z,9.26
2017-11-22T03:23:31.312Z,9.24
2017-11-22T03:24:41.023Z,9.21
2017-11-22T03:25:50.214Z,9.19
2017-11-22T03:27:00.196Z,9.15
2017-11-22T03:28:09.904Z,9.19
2017-11-22T03:29:19.880Z,9.15
2017-11-22T03:30:29.864Z,9.13
2017-11-22T03:31:39.837Z,9.15
2017-11-22T03:32:49.795Z,9.16
2017-11-22T03:33:59.518Z,9.15
2017-11-22T03:35:09.531Z,9.11
2017-11-22T03:36:19.689Z,9.09
2017-11-22T03:37:30.014Z,9.13
2017-11-22T03:38:39.740Z,9.13
2017-11-22T03:39:49.183Z,9.12
2017-11-22T03:40:58.907Z,9.09
2017-11-22T03:42:08.873Z,9.05
2017-11-22T03:43:18.595Z,9.09
2017-11-22T03:44:28.035Z,9.11
2017-11-22T03:45:37.747Z,9.09
2017-11-22T03:46:47.519Z,9.05
2017-11-22T03:47:57.739Z,9.09
2017-11-22T03:49:07.720Z,9.09
2017-11-22T03:50:17.439Z,9.03
2017-11-22T03:51:27.135Z,9.03
2017-11-22T03:52:37.092Z,9
2017-11-22T03:53:46.792Z,9.05
2017-11-22T03:54:56.762Z,8.93
2017-11-22T03:56:06.745Z,9.02
2017-11-22T03:57:16.711Z,8.96
2017-11-22T03:58:26.690Z,8.93
2017-11-22T03:59:36.140Z,9.02
2017-11-22T04:00:46.109Z,9.02
2017-11-22T04:01:56.078Z,8.97
2017-11-22T04:03:06.060Z,9.05
2017-11-22T04:04:16.037Z,9.03
2017-11-22T04:05:25.479Z,8.96
2017-11-22T04:06:35.471Z,9.02
2017-11-22T04:07:44.909Z,9
2017-11-22T04:08:54.622Z,8.99
2017-11-22T04:10:04.595Z,9
2017-11-22T04:11:14.564Z,8.99
2017-11-22T04:12:24.270Z,8.9
2017-11-22T04:13:34.249Z,8.93
2017-11-22T04:14:44.210Z,8.92
2017-11-22T04:15:54.195Z,9.05
2017-11-22T04:17:03.909Z,8.9
2017-11-22T04:18:13.884Z,9.05
2017-11-22T04:19:23.875Z,8.97
2017-11-22T04:20:33.585Z,8.87
2017-11-22T04:21:43.022Z,9.02
2017-11-22T04:22:52.985Z,8.97
2017-11-22T04:24:02.688Z,9
2017-11-22T04:25:12.391Z,8.95
2017-11-22T04:26:22.101Z,8.84
2017-11-22T04:27:31.815Z,8.96
2017-11-22T04:28:41.518Z,8.92
2017-11-22T04:29:51.224Z,8.96
2017-11-22T04:31:00.690Z,8.96
2017-11-22T04:32:10.413Z,8.86
2017-11-22T04:33:20.145Z,8.9
2017-11-22T04:34:30.127Z,8.89
2017-11-22T04:35:39.850Z,8.9
2017-11-22T04:36:49.308Z,8.9
2017-11-22T04:37:59.023Z,8.9
2017-11-22T04:39:08.746Z,8.92
2017-11-22T04:40:18.214Z,8.93
2017-11-22T04:41:27.932Z,8.95
2017-11-22T04:42:37.375Z,8.99
2017-11-22T04:43:46.839Z,8.92
2017-11-22T04:44:56.814Z,8.84
2017-11-22T04:46:06.254Z,8.92
2017-11-22T04:47:16.236Z,8.86
2017-11-22T04:48:25.677Z,8.82
2017-11-22T04:49:35.644Z,8.86
2017-11-22T04:50:45.632Z,8.86
2017-11-22T04:51:55.357Z,8.84
2017-11-22T04:53:05.319Z,8.86
2017-11-22T04:54:15.286Z,8.84
2017-11-22T04:55:25.271Z,8.87
2017-11-22T04:56:34.983Z,8.87
2017-11-22T04:57:44.939Z,8.84
2017-11-22T04:58:54.648Z,8.89
2017-11-22T05:00:04.357Z,8.86
2017-11-22T05:01:14.328Z,8.84
2017-11-22T05:02:24.027Z,8.84
2017-11-22T05:03:33.735Z,8.86
2017-11-22T05:04:43.709Z,8.87
2017-11-22T05:05:53.681Z,8.77
2017-11-22T05:07:03.664Z,8.82
2017-11-22T05:08:13.381Z,8.77
2017-11-22T05:09:23.355Z,8.81
2017-11-22T05:10:33.314Z,8.84
2017-11-22T05:11:43.291Z,8.79
2017-11-22T05:12:52.745Z,8.78
2017-11-22T05:14:02.458Z,8.78
2017-11-22T05:15:11.905Z,8.9
2017-11-22T05:16:21.888Z,8.81
2017-11-22T05:17:31.328Z,8.79
2017-11-22T05:18:41.297Z,8.84
2017-11-22T05:19:50.476Z,8.81
2017-11-22T05:21:00.467Z,8.82
2017-11-22T05:22:10.437Z,8.79
2017-11-22T05:23:20.424Z,8.79
2017-11-22T05:24:30.400Z,8.75
2017-11-22T05:25:40.119Z,8.79
2017-11-22T05:26:49.301Z,8.77
2017-11-22T05:27:59.010Z,8.81
2017-11-22T05:29:08.460Z,8.82
2017-11-22T05:30:18.172Z,8.77
2017-11-22T05:31:28.145Z,8.79
2017-11-22T05:32:38.136Z,8.78
2017-11-22T05:33:48.132Z,8.71
2017-11-22T05:34:58.139Z,8.72
2017-11-22T05:36:07.856Z,8.68
2017-11-22T05:37:17.558Z,8.68
2017-11-22T05:38:27.285Z,8.63
2017-11-22T05:39:37.266Z,8.69
2017-11-22T05:40:46.707Z,8.61
2017-11-22T05:41:56.159Z,8.68
2017-11-22T05:43:06.131Z,8.63
2017-11-22T05:44:15.596Z,8.61
2017-11-22T05:45:25.576Z,8.66
2017-11-22T05:46:35.277Z,8.59
2017-11-22T05:47:45.245Z,8.59
2017-11-22T05:48:55.469Z,8.5
2017-11-22T05:50:04.913Z,8.44
2017-11-22T05:51:14.878Z,8.5
2017-11-22T05:52:24.861Z,8.53
2017-11-22T05:53:34.610Z,8.42
2017-11-22T05:54:44.585Z,8.53
2017-11-22T05:55:54.046Z,8.39
2017-11-22T05:57:04.012Z,8.38
2017-11-22T05:58:13.449Z,8.38
2017-11-22T05:59:23.155Z,8.35
2017-11-22T06:00:33.152Z,8.36
2017-11-22T06:01:43.122Z,8.31
2017-11-22T06:02:52.340Z,8.28
2017-11-22T06:04:02.040Z,8.34
2017-11-22T06:05:11.749Z,8.27
2017-11-22T06:06:21.714Z,8.35
2017-11-22T06:07:31.412Z,8.31
2017-11-22T06:08:41.380Z,8.34
2017-11-22T06:09:51.372Z,8.31
2017-11-22T06:11:01.384Z,8.32
2017-11-22T06:12:11.348Z,8.27
2017-11-22T06:13:20.791Z,8.32
2017-11-22T06:14:30.508Z,8.36
2017-11-22T06:15:40.520Z,8.31
2017-11-22T06:16:50.488Z,8.35
2017-11-22T06:18:00.480Z,8.32
2017-11-22T06:19:10.445Z,8.36
2017-11-22T06:20:20.158Z,8.32
2017-11-22T06:21:29.605Z,8.35
2017-11-22T06:22:39.588Z,8.28
2017-11-22T06:23:49.295Z,8.36
2017-11-22T06:24:58.478Z,8.32
2017-11-22T06:26:08.447Z,8.34
2017-11-22T06:27:18.427Z,8.23
2017-11-22T06:28:27.870Z,8.28
2017-11-22T06:29:37.841Z,8.31
2017-11-22T06:30:47.844Z,8.26
2017-11-22T06:31:57.862Z,8.16
2017-11-22T06:33:07.823Z,8.23
2017-11-22T06:34:17.519Z,8.24
2017-11-22T06:35:27.369Z,8.2
2017-11-22T06:36:37.095Z,8.2
2017-11-22T06:37:46.541Z,8.17
2017-11-22T06:38:56.319Z,8.24
2017-11-22T06:40:06.291Z,8.24
2017-11-22T06:41:16.292Z,8.18
2017-11-22T06:42:25.755Z,8.2
2017-11-22T06:43:35.468Z,8.2
2017-11-22T06:44:45.181Z,8.2
2017-11-22T06:45:54.907Z,8.2
2017-11-22T06:47:04.703Z,8.11
2017-11-22T06:48:14.699Z,8.13
2017-11-22T06:49:24.697Z,8.14
2017-11-22T06:50:34.399Z,8.13
2017-11-22T06:51:44.385Z,8.06
2017-11-22T06:52:54.371Z,8.16
2017-11-22T06:54:04.094Z,8.13
2017-11-22T06:55:14.067Z,8.11
2017-11-22T06:56:23.765Z,8.03
2017-11-22T06:57:33.736Z,8.13
2017-11-22T06:58:43.491Z,8.09
2017-11-22T06:59:53.492Z,8.13
2017-11-22T07:01:03.237Z,8.06
2017-11-22T07:02:12.151Z,8.06
2017-11-22T07:03:21.602Z,8.09
2017-11-22T07:04:31.047Z,8.06
2017-11-22T07:05:40.757Z,8.11
2017-11-22T07:06:50.725Z,8.08
2017-11-22T07:08:00.700Z,8.06
2017-11-22T07:09:10.142Z,8.03
2017-11-22T07:10:19.848Z,8.09
2017-11-22T07:11:29.828Z,8.08
2017-11-22T07:12:39.535Z,8.09
2017-11-22T07:13:49.250Z,7.95
2017-11-22T07:14:58.969Z,7.96
2017-11-22T07:16:08.746Z,7.9
2017-11-22T07:17:18.723Z,7.91
2017-11-22T07:18:28.728Z,7.84
2017-11-22T07:19:38.446Z,7.8
2017-11-22T07:20:48.161Z,7.91
2017-11-22T07:21:58.146Z,7.83
2017-11-22T07:23:07.591Z,7.83
2017-11-22T07:24:17.313Z,7.83
2017-11-22T07:25:27.307Z,7.77
2017-11-22T07:26:37.277Z,7.84
2017-11-22T07:27:46.990Z,7.81
2017-11-22T07:28:57.219Z,7.78
2017-11-22T07:30:06.930Z,7.75
2017-11-22T07:31:16.904Z,7.83
2017-11-22T07:32:26.617Z,7.78
2017-11-22T07:33:36.590Z,7.75
2017-11-22T07:34:46.558Z,7.77
2017-11-22T07:35:55.750Z,7.72
2017-11-22T07:37:05.731Z,7.72
2017-11-22T07:38:15.485Z,7.93
2017-11-22T07:39:25.466Z,7.84
2017-11-22T07:40:34.919Z,7.77
2017-11-22T07:41:44.892Z,7.74
2017-11-22T07:42:54.865Z,7.9
2017-11-22T07:44:04.837Z,7.85
2017-11-22T07:45:14.288Z,7.75
2017-11-22T07:46:24.271Z,7.85
2017-11-22T07:47:33.972Z,7.81
2017-11-22T07:48:43.733Z,7.77
2017-11-22T07:49:53.711Z,7.88
2017-11-22T07:51:03.154Z,7.87
2017-11-22T07:52:13.165Z,7.83
2017-11-22T07:53:23.144Z,7.87
2017-11-22T07:54:33.141Z,7.9
2017-11-22T07:55:43.146Z,7.85
2017-11-22T07:56:53.148Z,7.84
2017-11-22T07:58:02.848Z,7.83
2017-11-22T07:59:12.548Z,7.9
2017-11-22T08:00:21.991Z,7.87
2017-11-22T08:01:31.440Z,7.95
2017-11-22T08:02:41.157Z,7.88
2017-11-22T08:03:50.880Z,8.02
2017-11-22T08:05:00.599Z,8.03
2017-11-22T08:06:10.315Z,7.99
2017-11-22T08:07:20.301Z,8.13
2017-11-22T08:08:30.273Z,8.06
2017-11-22T08:09:39.730Z,8.01
2017-11-22T08:10:49.461Z,8.05
2017-11-22T08:11:59.458Z,8.03
2017-11-22T08:13:09.451Z,8.06
2017-11-22T08:14:18.661Z,8.16
2017-11-22T08:15:28.682Z,8.09
2017-11-22T08:16:38.394Z,8.17
2017-11-22T08:17:48.388Z,8.17
2017-11-22T08:18:58.098Z,8.18
2017-11-22T08:20:07.816Z,8.17
2017-11-22T08:21:17.522Z,8.26
2017-11-22T08:22:27.509Z,8.32
2017-11-22T08:23:36.970Z,8.36
2017-11-22T08:24:46.959Z,8.35
2017-11-22T08:25:56.964Z,8.36
2017-11-22T08:27:06.687Z,8.42
2017-11-22T08:28:16.666Z,8.35
2017-11-22T08:29:26.647Z,8.38
2017-11-22T08:30:36.363Z,8.31
2017-11-22T08:31:46.361Z,8.5
2017-11-22T08:32:56.095Z,8.49
2017-11-22T08:34:05.822Z,8.45
2017-11-22T08:35:15.540Z,8.44
2017-11-22T08:36:25.504Z,8.59
2017-11-22T08:37:35.504Z,8.57
2017-11-22T08:38:45.209Z,8.56
2017-11-22T08:39:54.441Z,8.61
2017-11-22T08:41:03.918Z,8.6
2017-11-22T08:42:13.460Z,8.66
2017-11-22T08:43:23.480Z,8.69
2017-11-22T08:44:32.950Z,8.64
2017-11-22T08:45:42.662Z,8.66
2017-11-22T08:46:52.379Z,8.64
2017-11-22T08:48:02.353Z,8.68
2017-11-22T08:49:12.061Z,8.69
2017-11-22T08:50:21.529Z,8.68
2017-11-22T08:51:30.978Z,8.71
2017-11-22T08:52:40.956Z,8.75
2017-11-22T08:53:50.669Z,8.75
2017-11-22T08:55:00.393Z,8.74
2017-11-22T08:56:10.107Z,8.78
2017-11-22T08:57:19.829Z,8.78
2017-11-22T08:58:29.631Z,8.81
2017-11-22T08:59:39.118Z,8.77
2017-11-22T09:00:49.106Z,8.81
2017-11-22T09:01:58.580Z,8.77
2017-11-22T09:03:08.340Z,8.79
2017-11-22T09:04:17.786Z,8.77
2017-11-22T09:05:27.504Z,8.78
2017-11-22T09:06:37.492Z,8.74
2017-11-22T09:07:47.245Z,8.75
2017-11-22T09:08:57.211Z,8.71
2017-11-22T09:10:06.941Z,8.68
2017-11-22T09:11:16.674Z,8.64
2017-11-22T09:12:26.669Z,8.64
2017-11-22T09:13:36.411Z,8.72
2017-11-22T09:14:46.132Z,8.64
2017-11-22T09:15:55.863Z,8.69
2017-11-22T09:17:05.620Z,8.71
2017-11-22T09:18:15.612Z,8.75
2017-11-22T09:19:25.068Z,8.74
2017-11-22T09:20:34.792Z,8.79
2017-11-22T09:21:44.817Z,8.75
2017-11-22T09:22:54.561Z,8.82
2017-11-22T09:24:04.296Z,8.82
2017-11-22T09:25:14.282Z,8.87
2017-11-22T09:26:24.015Z,8.82
2017-11-22T09:27:34.081Z,8.93
2017-11-22T09:28:44.088Z,8.93
2017-11-22T09:29:54.088Z,8.89
2017-11-22T09:31:04.082Z,8.95
2017-11-22T09:32:14.072Z,9.03
2017-11-22T09:33:24.072Z,9.03
2017-11-22T09:34:34.061Z,9.09
2017-11-22T09:35:43.524Z,9.03
2017-11-22T09:36:53.522Z,9.16
2017-11-22T09:38:03.500Z,9.12
2017-11-22T09:39:13.244Z,9.19
2017-11-22T09:40:22.956Z,9.16
2017-11-22T09:41:32.743Z,9.22
2017-11-22T09:42:42.752Z,9.24
2017-11-22T09:43:52.493Z,9.22
2017-11-22T09:45:02.493Z,9.37
2017-11-22T09:46:11.980Z,9.27
2017-11-22T09:47:21.998Z,9.39
2017-11-22T09:48:31.990Z,9.34
2017-11-22T09:49:41.720Z,9.37
2017-11-22T09:50:51.707Z,9.47
2017-11-22T09:52:01.735Z,9.44
2017-11-22T09:53:11.478Z,9.44
2017-11-22T09:54:20.937Z,9.44
2017-11-22T09:55:30.770Z,9.45
2017-11-22T09:56:40.547Z,9.42
2017-11-22T09:57:50.327Z,9.44
2017-11-22T09:59:00.056Z,9.45
2017-11-22T10:00:10.071Z,9.51
2017-11-22T10:01:19.291Z,9.54
2017-11-22T10:02:29.289Z,9.51
2017-11-22T10:03:39.294Z,9.55
2017-11-22T10:04:49.021Z,9.55
2017-11-22T10:05:58.490Z,9.55
2017-11-22T10:07:08.214Z,9.59
2017-11-22T10:08:18.220Z,9.56
2017-11-22T10:09:27.700Z,9.55
2017-11-22T10:10:37.463Z,9.58
2017-11-22T10:11:47.486Z,9.59
2017-11-22T10:12:57.514Z,9.52
2017-11-22T10:14:07.508Z,9.55
2017-11-22T10:15:17.500Z,9.55
2017-11-22T10:16:27.552Z,9.59
2017-11-22T10:17:36.998Z,9.64
2017-11-22T10:18:46.455Z,9.56
2017-11-22T10:19:56.158Z,9.56
2017-11-22T10:21:05.618Z,9.54
2017-11-22T10:22:15.338Z,9.7
2017-11-22T10:23:25.072Z,9.72
2017-11-22T10:24:35.069Z,9.67
2017-11-22T10:25:44.860Z,9.72
2017-11-22T10:26:54.824Z,9.72
2017-11-22T10:28:04.864Z,9.76
2017-11-22T10:29:14.339Z,9.77
2017-11-22T10:30:23.526Z,9.82
2017-11-22T10:31:33.499Z,9.81
2017-11-22T10:32:43.233Z,9.87
2017-11-22T10:33:52.956Z,9.85
2017-11-22T10:35:02.733Z,9.91
2017-11-22T10:36:12.177Z,9.91
2017-11-22T10:37:22.175Z,9.88
2017-11-22T10:38:32.163Z,9.97
2017-11-22T10:39:42.178Z,9.94
2017-11-22T10:40:51.940Z,9.95
2017-11-22T10:42:01.937Z,10.05
2017-11-22T10:43:11.913Z,10.02
2017-11-22T10:44:21.884Z,10.06
2017-11-22T10:45:31.601Z,10.05
2017-11-22T10:46:41.583Z,10.06
2017-11-22T10:47:51.572Z,10.12
2017-11-22T10:49:01.559Z,10.1
2017-11-22T10:50:11.536Z,10.1
2017-11-22T10:51:21.284Z,10.12
2017-11-22T10:52:31.268Z,10.06
2017-11-22T10:53:40.751Z,10.07
2017-11-22T10:54:50.789Z,10.12
2017-11-22T10:56:00.554Z,10.05
2017-11-22T10:57:10.818Z,10.06
2017-11-22T10:58:20.257Z,10.05
2017-11-22T10:59:30.003Z,10.09
2017-11-22T11:00:40.030Z,10.09
2017-11-22T11:01:49.739Z,10.12
2017-11-22T11:02:59.467Z,10.1
2017-11-22T11:04:09.452Z,10.06
2017-11-22T11:05:19.441Z,10.06
2017-11-22T11:06:29.160Z,10.13
2017-11-22T11:07:38.898Z,10.07
2017-11-22T11:08:48.633Z,10.06
2017-11-22T11:09:58.094Z,10.09
2017-11-22T11:11:07.810Z,10.05
2017-11-22T11:12:17.264Z,10.12
2017-11-22T11:13:27.254Z,10.1
2017-11-22T11:14:36.738Z,10.1
2017-11-22T11:15:46.713Z,10.1
2017-11-22T11:16:56.745Z,10.13
2017-11-22T11:18:06.747Z,10.13
2017-11-22T11:19:16.785Z,10.21
2017-11-22T11:20:26.530Z,10.2
2017-11-22T11:23:18.367Z,10.23
2017-11-22T11:24:47.563Z,10.2
2017-11-22T11:25:57.031Z,10.23
2017-11-22T11:27:06.750Z,10.24
2017-11-22T11:28:16.737Z,10.2
2017-11-22T11:29:26.193Z,10.28
2017-11-22T11:30:35.637Z,10.31
2017-11-22T11:31:45.360Z,10.21
2017-11-22T11:32:54.834Z,10.23
2017-11-22T11:34:04.585Z,10.21
2017-11-22T11:35:13.775Z,10.18
2017-11-22T11:36:23.757Z,10.21
2017-11-22T11:37:33.824Z,10.25
2017-11-22T11:38:43.813Z,10.31
2017-11-22T11:39:53.582Z,10.28
2017-11-22T11:41:03.628Z,10.27
2017-11-22T11:42:13.385Z,10.18
2017-11-22T11:43:23.391Z,10.25
2017-11-22T11:44:33.116Z,10.3
2017-11-22T11:45:42.605Z,10.34
2017-11-22T11:46:52.088Z,10.27
2017-11-22T11:48:01.808Z,10.41
2017-11-22T11:49:11.909Z,10.36
2017-11-22T11:50:21.880Z,10.38
2017-11-22T11:51:31.867Z,10.39
2017-11-22T11:52:41.853Z,10.42
2017-11-22T11:53:51.585Z,10.39
2017-11-22T11:55:01.576Z,10.53
2017-11-22T11:56:11.569Z,10.46
2017-11-22T11:57:21.289Z,10.46
2017-11-22T11:58:31.005Z,10.48
2017-11-22T11:59:40.755Z,10.53
2017-11-22T12:00:50.278Z,10.42
2017-11-22T12:01:59.755Z,10.51
2017-11-22T12:03:09.750Z,10.51
2017-11-22T12:04:18.953Z,10.58
2017-11-22T12:05:28.705Z,10.55
2017-11-22T12:06:38.694Z,10.58
2017-11-22T12:07:48.751Z,10.58
2017-11-22T12:08:58.529Z,10.55
2017-11-22T12:10:08.547Z,10.53
2017-11-22T12:11:18.310Z,10.55
2017-11-22T12:12:28.299Z,10.58
2017-11-22T12:13:37.775Z,10.49
2017-11-22T12:14:47.819Z,10.59
2017-11-22T12:15:57.829Z,10.57
2017-11-22T12:17:07.824Z,10.55
2017-11-22T12:18:17.286Z,10.53
2017-11-22T12:19:27.005Z,10.53
2017-11-22T12:20:37.002Z,10.53
2017-11-22T12:21:46.469Z,10.48
2017-11-22T12:22:56.472Z,10.61
2017-11-22T12:24:06.193Z,10.59
2017-11-22T12:25:16.174Z,10.61
2017-11-22T12:26:26.140Z,10.53
2017-11-22T12:27:36.112Z,10.53
2017-11-22T12:28:46.090Z,10.59
2017-11-22T12:29:55.808Z,10.64
2017-11-22T12:31:05.256Z,10.55
2017-11-22T12:32:14.718Z,10.65
2017-11-22T12:33:24.170Z,10.61
2017-11-22T12:34:33.886Z,10.59
2017-11-22T12:35:43.373Z,10.67
2017-11-22T12:36:53.361Z,10.65
2017-11-22T12:38:03.115Z,10.62
2017-11-22T12:39:12.571Z,10.61
2017-11-22T12:40:22.548Z,10.64
2017-11-22T12:41:32.552Z,10.69
2017-11-22T12:42:42.253Z,10.76
2017-11-22T12:43:51.993Z,10.69
2017-11-22T12:45:01.986Z,10.77
2017-11-22T12:46:12.009Z,10.68
2017-11-22T12:47:21.755Z,10.68
2017-11-22T12:48:31.796Z,10.8
2017-11-22T12:49:41.523Z,10.72
2017-11-22T12:50:51.520Z,10.8
2017-11-22T12:52:01.240Z,10.75
2017-11-22T12:53:11.481Z,10.76
2017-11-22T12:54:21.452Z,10.77
2017-11-22T12:55:31.159Z,10.82
2017-11-22T12:56:41.158Z,10.82
2017-11-22T12:57:51.142Z,10.76
2017-11-22T12:59:01.146Z,10.69
2017-11-22T13:00:10.612Z,10.82
2017-11-22T13:01:20.596Z,10.76
2017-11-22T13:02:30.050Z,10.77
2017-11-22T13:03:39.767Z,10.76
2017-11-22T13:04:49.746Z,10.83
2017-11-22T13:05:59.490Z,10.83
2017-11-22T13:07:09.194Z,10.8
2017-11-22T13:08:18.908Z,10.72
2017-11-22T13:09:28.358Z,10.77
2017-11-22T13:10:37.830Z,10.75
2017-11-22T13:11:47.818Z,10.77
2017-11-22T13:12:57.272Z,10.8
2017-11-22T13:14:07.250Z,10.8
2017-11-22T13:15:16.718Z,10.72
2017-11-22T13:16:26.444Z,10.72
2017-11-22T13:17:36.442Z,10.71
2017-11-22T13:18:46.165Z,10.69
2017-11-22T13:19:55.614Z,10.8
2017-11-22T13:21:05.327Z,10.83
2017-11-22T13:22:15.306Z,10.79
2017-11-22T13:23:25.038Z,10.71
2017-11-22T13:24:34.756Z,10.8
2017-11-22T13:25:44.728Z,10.77
2017-11-22T13:26:54.750Z,10.75
2017-11-22T13:28:04.733Z,10.82
2017-11-22T13:29:14.193Z,10.77
2017-11-22T13:30:23.923Z,10.77
2017-11-22T13:31:33.980Z,10.84
2017-11-22T13:32:43.970Z,10.8
2017-11-22T13:33:53.722Z,10.75
2017-11-22T13:35:03.767Z,10.69
2017-11-22T13:36:13.758Z,10.82
2017-11-22T13:37:23.740Z,10.75
2017-11-22T13:38:33.732Z,10.8
2017-11-22T13:39:43.738Z,10.72
2017-11-22T13:40:53.288Z,10.75
2017-11-22T13:42:02.765Z,10.82
2017-11-22T13:43:12.746Z,10.76
2017-11-22T13:44:22.754Z,10.77
2017-11-22T13:45:32.751Z,10.79
2017-11-22T13:46:42.740Z,10.77
2017-11-22T13:47:53.167Z,10.76
2017-11-22T13:49:02.952Z,10.76
2017-11-22T13:50:12.672Z,10.76
2017-11-22T13:51:22.726Z,10.79
2017-11-22T13:52:32.186Z,10.79
2017-11-22T13:53:41.125Z,10.82
2017-11-22T13:54:50.850Z,10.8
2017-11-22T13:56:00.861Z,10.71
2017-11-22T13:57:10.865Z,10.76
2017-11-22T13:58:20.631Z,10.72
2017-11-22T13:59:30.111Z,10.83
2017-11-22T14:00:39.815Z,10.83
2017-11-22T14:01:49.280Z,10.75
2017-11-22T14:02:59.036Z,10.72
2017-11-22T14:04:08.765Z,10.75
2017-11-22T14:05:18.204Z,10.83
2017-11-22T14:06:28.225Z,10.76
2017-11-22T14:07:38.198Z,10.77
2017-11-22T14:08:48.423Z,10.71
2017-11-22T14:09:58.160Z,10.77
2017-11-22T14:11:08.142Z,10.8
2017-11-22T14:12:18.590Z,10.79
2017-11-22T14:13:28.828Z,10.75
2017-11-22T14:14:38.291Z,10.82
2017-11-22T14:15:48.259Z,10.83
2017-11-22T14:16:57.714Z,10.77
2017-11-22T14:18:07.704Z,10.77
2017-11-22T14:19:17.693Z,10.82
2017-11-22T14:20:27.412Z,10.77
2017-11-22T14:21:37.145Z,10.71
2017-11-22T14:22:47.139Z,10.8
2017-11-22T14:23:57.133Z,10.75
2017-11-22T14:25:06.850Z,10.83
2017-11-22T14:26:16.305Z,10.77
2017-11-22T14:27:26.278Z,10.82
2017-11-22T14:28:35.741Z,10.83
2017-11-22T14:29:45.737Z,10.77
2017-11-22T14:30:55.208Z,10.71
2017-11-22T14:32:04.669Z,10.8
2017-11-22T14:33:14.392Z,10.8
2017-11-22T14:34:24.109Z,10.76
2017-11-22T14:35:34.108Z,10.72
2017-11-22T14:36:44.080Z,10.8
2017-11-22T14:37:53.825Z,10.75
2017-11-22T14:39:03.811Z,10.77
2017-11-22T14:40:13.074Z,10.82
2017-11-22T14:41:23.057Z,10.67
2017-11-22T14:42:33.063Z,10.68
2017-11-22T14:43:42.765Z,10.62
2017-11-22T14:44:52.741Z,10.64
2017-11-22T14:46:02.730Z,10.67
2017-11-22T14:47:12.166Z,10.65
2017-11-22T14:48:21.897Z,10.59
2017-11-22T14:49:31.633Z,10.59
2017-11-22T14:50:41.621Z,10.69
2017-11-22T14:51:51.106Z,10.51
2017-11-22T14:53:01.101Z,10.55
2017-11-22T14:54:10.826Z,10.64
2017-11-22T14:55:20.278Z,10.62
2017-11-22T14:56:30.269Z,10.59
2017-11-22T14:57:39.977Z,10.53
2017-11-22T14:58:49.458Z,10.55
2017-11-22T14:59:59.168Z,10.51
2017-11-22T15:01:09.134Z,10.58
2017-11-22T15:02:19.120Z,10.53
2017-11-22T15:03:28.838Z,10.53
2017-11-22T15:04:38.550Z,10.59
2017-11-22T15:05:48.270Z,10.55
2017-11-22T15:06:58.026Z,10.51
2017-11-22T15:08:07.998Z,10.48
2017-11-22T15:09:17.448Z,10.42
2017-11-22T15:10:27.428Z,10.46
2017-11-22T15:11:36.878Z,10.45
2017-11-22T15:12:46.632Z,10.42
2017-11-22T15:13:56.613Z,10.43
2017-11-22T15:15:06.064Z,10.41
2017-11-22T15:16:15.534Z,10.42
2017-11-22T15:17:25.516Z,10.43
2017-11-22T15:18:35.496Z,10.43
2017-11-22T15:19:45.221Z,10.39
2017-11-22T15:20:54.936Z,10.41
2017-11-22T15:22:04.918Z,10.34
2017-11-22T15:23:14.634Z,10.39
2017-11-22T15:24:24.597Z,10.36